Time;durP1;ratioP1;P1;durP2;ratioP2;P2;SDS_P1;SDS_P2;PMS_P1;PMS_P2;Temp;Humidity;BMP_temperature;BMP_pressure;BME280_temperature;BME280_humidity;BME280_pressure;Samples;Min_cycle;Max_cycle;Signal;HPM_P1;HPM_P2
2022/01/10 00:00:55;;;;;;;5.00;2.23;;;1.90;99.90;;;;;;4979894;28;20027;-89
2022/01/10 00:03:27;;;;;;;5.63;2.67;;;1.90;99.90;;;;;;4991840;28;20033;-87
2022/01/10 00:05:58;;;;;;;8.75;2.97;;;1.90;99.90;;;;;;4982131;28;20057;-88
2022/01/10 00:08:40;;;;;;;5.85;2.42;;;1.90;99.90;;;;;;4970133;28;20038;-86
2022/01/10 00:11:12;;;;;;;11.17;3.27;;;1.90;99.90;;;;;;4995080;28;20019;-87
2022/01/10 00:13:38;;;;;;;3.33;1.67;;;1.90;99.90;;;;;;4979896;28;20022;-86
2022/01/10 00:16:10;;;;;;;5.90;2.80;;;1.90;99.90;;;;;;4990367;28;20027;-87
2022/01/10 00:18:38;;;;;;;4.97;2.38;;;1.90;99.90;;;;;;4980826;28;20053;-87
2022/01/10 00:21:05;;;;;;;6.80;2.37;;;1.90;99.90;;;;;;4976598;28;20035;-86
2022/01/10 00:23:34;;;;;;;10.07;2.87;;;1.90;99.90;;;;;;4982901;28;20466;-89
2022/01/10 00:26:11;;;;;;;5.03;2.33;;;1.90;99.90;;;;;;4979722;28;20030;-87
2022/01/10 00:28:43;;;;;;;5.40;2.50;;;1.80;99.90;;;;;;4976971;28;20026;-87
2022/01/10 00:31:14;;;;;;;5.75;2.63;;;1.90;99.90;;;;;;4977807;28;20069;-87
2022/01/10 00:33:44;;;;;;;5.80;2.85;;;1.90;99.90;;;;;;4973077;28;20625;-87
2022/01/10 00:36:23;;;;;;;5.83;2.50;;;1.90;99.90;;;;;;4991324;28;20022;-87
2022/01/10 00:39:15;;;;;;;5.67;2.30;;;1.90;99.90;;;;;;4977908;28;20077;-87
2022/01/10 00:41:49;;;;;;;5.20;2.40;;;1.90;99.90;;;;;;4984430;28;20094;-87
2022/01/10 00:44:25;;;;;;;4.70;2.47;;;2.00;99.90;;;;;;4963115;28;20045;-86
2022/01/10 00:46:54;;;;;;;4.37;2.17;;;1.90;99.90;;;;;;4985795;28;20026;-87
2022/01/10 00:49:28;;;;;;;5.27;2.20;;;1.90;99.90;;;;;;4971563;28;20552;-88
2022/01/10 00:52:02;;;;;;;7.47;2.47;;;1.90;99.90;;;;;;4974663;28;20073;-87
2022/01/10 00:54:31;;;;;;;6.07;2.33;;;1.90;99.90;;;;;;4966849;28;20035;-87
2022/01/10 00:57:05;;;;;;;5.37;2.10;;;2.00;99.90;;;;;;4981336;28;20022;-89
2022/01/10 00:59:46;;;;;;;4.77;1.80;;;1.90;99.90;;;;;;4974296;28;20034;-88
2022/01/10 01:02:39;;;;;;;6.53;1.90;;;1.90;99.90;;;;;;4984549;28;20038;-88
2022/01/10 01:08:12;;;;;;;6.47;2.33;;;2.10;99.90;;;;;;4993003;28;20487;-89
2022/01/10 01:24:20;;;;;;;4.53;2.20;;;1.90;99.90;;;;;;4989844;28;20049;-88
2022/01/10 01:26:48;;;;;;;4.93;2.20;;;1.90;99.90;;;;;;4979532;28;20034;-88
2022/01/10 01:29:39;;;;;;;3.53;1.93;;;1.90;99.90;;;;;;4983147;28;20117;-89
2022/01/10 01:32:11;;;;;;;5.50;1.87;;;1.90;99.90;;;;;;4974633;28;20359;-89
2022/01/10 01:34:39;;;;;;;5.97;1.83;;;1.90;99.90;;;;;;4994811;28;20039;-88
2022/01/10 01:37:11;;;;;;;4.57;1.87;;;1.90;99.90;;;;;;4982411;28;20041;-89
2022/01/10 01:39:43;;;;;;;8.07;2.40;;;1.90;99.90;;;;;;4978065;28;20035;-88
2022/01/10 01:42:34;;;;;;;4.72;2.03;;;1.90;99.90;;;;;;4977347;28;20046;-88
2022/01/10 01:45:12;;;;;;;8.60;2.00;;;2.00;99.90;;;;;;4987069;28;20034;-90
2022/01/10 01:47:53;;;;;;;7.20;2.70;;;1.90;99.90;;;;;;4978742;28;20102;-88
2022/01/10 01:50:47;;;;;;;6.50;2.53;;;2.00;99.90;;;;;;4987240;28;20022;-89
2022/01/10 01:53:19;;;;;;;7.63;2.73;;;1.90;99.90;;;;;;4993965;28;20030;-88
2022/01/10 01:56:06;;;;;;;6.30;2.28;;;1.90;99.90;;;;;;4984318;28;20091;-88
2022/01/10 01:58:39;;;;;;;7.67;2.80;;;1.90;99.90;;;;;;5006033;28;20031;-88
2022/01/10 02:01:09;;;;;;;5.00;2.50;;;2.00;99.90;;;;;;4996955;28;20064;-88
2022/01/10 02:03:38;;;;;;;5.53;2.30;;;1.90;99.90;;;;;;4981776;28;20510;-88
2022/01/10 02:06:14;;;;;;;5.77;2.60;;;2.00;99.90;;;;;;4975834;28;20034;-89
2022/01/10 02:09:14;;;;;;;5.77;2.53;;;2.00;99.90;;;;;;4983348;28;20030;-88
2022/01/10 02:11:53;;;;;;;6.10;2.80;;;1.90;99.90;;;;;;4976742;28;20022;-88
2022/01/10 02:14:46;;;;;;;5.03;2.47;;;2.00;99.90;;;;;;4981370;28;20125;-88
2022/01/10 02:17:24;;;;;;;4.20;2.07;;;2.00;99.90;;;;;;4985270;28;20089;-88
2022/01/10 02:20:02;;;;;;;4.67;2.00;;;2.00;99.90;;;;;;4987197;28;20044;-88
2022/01/10 02:23:07;;;;;;;6.20;2.20;;;2.00;99.90;;;;;;4987541;28;20042;-88
2022/01/10 02:25:45;;;;;;;6.50;2.20;;;2.00;99.90;;;;;;4986873;28;20454;-89
2022/01/10 02:28:27;;;;;;;5.13;1.73;;;2.00;99.90;;;;;;4985044;28;20479;-89
2022/01/10 02:31:07;;;;;;;4.70;2.20;;;2.10;99.90;;;;;;4996056;28;20026;-89
2022/01/10 02:33:39;;;;;;;4.57;2.20;;;2.00;99.90;;;;;;4976131;28;20037;-89
2022/01/10 02:36:26;;;;;;;6.25;2.05;;;2.00;99.90;;;;;;4991742;28;20019;-87
2022/01/10 02:39:09;;;;;;;6.00;1.97;;;2.00;99.90;;;;;;4987672;28;20088;-88
2022/01/10 02:42:09;;;;;;;5.87;2.57;;;2.00;99.90;;;;;;4998481;28;20050;-89
2022/01/10 02:45:15;;;;;;;6.50;2.10;;;2.00;99.90;;;;;;4977602;28;20097;-89
2022/01/10 02:47:50;;;;;;;4.47;1.40;;;2.00;99.90;;;;;;4987977;28;20041;-88
2022/01/10 02:50:26;;;;;;;3.77;1.43;;;1.90;99.90;;;;;;4991823;28;20035;-88
2022/01/10 02:53:05;;;;;;;5.27;1.40;;;1.90;99.90;;;;;;4999717;28;20161;-88
2022/01/10 02:55:47;;;;;;;5.73;1.70;;;1.90;99.90;;;;;;4978462;28;20030;-87
2022/01/10 02:58:19;;;;;;;6.10;1.70;;;1.90;99.90;;;;;;4992853;28;20029;-88
2022/01/10 03:01:06;;;;;;;6.25;1.30;;;1.90;99.90;;;;;;4992898;28;20113;-88
2022/01/10 03:03:36;;;;;;;5.30;1.40;;;2.00;99.90;;;;;;4992777;28;20035;-88
2022/01/10 03:06:16;;;;;;;3.47;1.40;;;1.90;99.90;;;;;;4987054;28;20483;-89
2022/01/10 03:08:50;;;;;;;7.10;2.10;;;1.90;99.90;;;;;;4998607;28;20034;-92
2022/01/10 03:11:16;;;;;;;5.50;1.67;;;1.90;99.90;;;;;;4976784;28;20038;-89
2022/01/10 03:13:42;;;;;;;7.97;2.10;;;1.90;99.90;;;;;;4978921;28;20026;-89
2022/01/10 03:16:11;;;;;;;5.27;1.90;;;1.90;99.90;;;;;;5000530;28;20030;-92
2022/01/10 03:18:47;;;;;;;6.90;1.90;;;1.90;99.90;;;;;;4991308;28;20034;-89
2022/01/10 03:21:23;;;;;;;5.60;2.20;;;1.90;99.90;;;;;;4981807;28;20085;-90
2022/01/10 03:23:59;;;;;;;9.43;2.13;;;1.90;99.90;;;;;;4975853;28;20038;-87
2022/01/10 03:26:27;;;;;;;4.77;2.00;;;2.00;99.90;;;;;;4981836;28;20033;-89
2022/01/10 03:29:05;;;;;;;5.73;2.20;;;2.00;99.90;;;;;;4986262;28;20450;-88
2022/01/10 03:31:42;;;;;;;6.93;1.90;;;2.00;99.90;;;;;;4991787;28;20078;-88
2022/01/10 03:34:26;;;;;;;5.20;1.67;;;2.00;99.90;;;;;;4993521;28;20018;-91
2022/01/10 03:36:58;;;;;;;3.77;1.43;;;2.00;99.90;;;;;;4991503;28;20066;-91
2022/01/10 03:39:27;;;;;;;7.03;2.03;;;2.00;99.90;;;;;;5003852;28;20034;-91
2022/01/10 03:42:12;;;;;;;8.43;1.63;;;2.00;99.90;;;;;;4988923;28;20054;-91
2022/01/10 03:44:41;;;;;;;10.47;1.80;;;2.00;99.90;;;;;;4980201;28;20037;-88
2022/01/10 03:47:20;;;;;;;5.43;1.47;;;2.00;99.90;;;;;;4983854;28;20439;-88
2022/01/10 03:49:54;;;;;;;6.87;1.77;;;2.00;99.90;;;;;;4997318;28;20053;-87
2022/01/10 03:52:31;;;;;;;4.73;1.63;;;1.90;99.90;;;;;;5004791;28;20023;-88
2022/01/10 03:55:04;;;;;;;5.90;2.20;;;2.10;99.90;;;;;;5006476;28;20049;-88
2022/01/10 03:57:45;;;;;;;5.47;1.90;;;2.10;99.90;;;;;;4985588;28;20672;-88
2022/01/10 04:00:19;;;;;;;8.60;2.03;;;2.10;99.90;;;;;;4987278;28;20407;-88
2022/01/10 04:02:56;;;;;;;6.33;2.27;;;2.10;99.90;;;;;;4985984;28;20090;-88
2022/01/10 04:05:33;;;;;;;4.07;1.57;;;2.10;99.90;;;;;;4985873;28;20027;-89
2022/01/10 04:08:17;;;;;;;6.37;2.20;;;2.10;99.90;;;;;;4984995;28;20434;-88
2022/01/10 04:10:54;;;;;;;8.47;1.90;;;2.10;99.90;;;;;;4986664;28;20093;-89
2022/01/10 04:13:21;;;;;;;6.70;1.70;;;2.10;99.90;;;;;;4981153;28;20046;-88
2022/01/10 04:15:52;;;;;;;5.10;2.07;;;2.10;99.90;;;;;;4981640;28;20026;-88
2022/01/10 04:18:19;;;;;;;7.93;2.10;;;2.10;99.90;;;;;;4986341;28;20034;-88
2022/01/10 04:21:08;;;;;;;9.40;2.33;;;2.10;99.90;;;;;;4984373;28;20122;-88
2022/01/10 04:23:42;;;;;;;11.07;2.47;;;2.10;99.90;;;;;;4999019;28;20522;-89
2022/01/10 04:26:27;;;;;;;4.83;2.20;;;2.10;99.90;;;;;;5002321;28;20034;-89
2022/01/10 04:28:56;;;;;;;10.60;2.20;;;2.10;99.90;;;;;;4986750;28;20292;-88
2022/01/10 04:31:40;;;;;;;8.13;2.43;;;2.10;99.90;;;;;;4989073;28;20459;-88
2022/01/10 04:34:09;;;;;;;9.77;2.50;;;2.10;99.90;;;;;;4991387;28;20234;-89
2022/01/10 04:37:06;;;;;;;4.93;2.10;;;2.10;99.90;;;;;;4990125;28;20579;-89
2022/01/10 04:39:35;;;;;;;6.93;2.50;;;2.10;99.90;;;;;;4988918;28;20026;-88
2022/01/10 04:42:08;;;;;;;4.27;1.80;;;2.10;99.90;;;;;;4991891;28;20038;-89
2022/01/10 04:44:37;;;;;;;6.87;2.60;;;2.10;99.90;;;;;;5001247;28;20150;-89
2022/01/10 04:47:11;;;;;;;10.20;3.10;;;2.20;99.90;;;;;;4990223;28;20502;-88
2022/01/10 04:50:04;;;;;;;9.40;2.80;;;2.20;99.90;;;;;;4985837;28;20533;-89
2022/01/10 04:52:53;;;;;;;9.18;2.83;;;2.20;99.90;;;;;;4996382;28;20034;-88
2022/01/10 04:55:25;;;;;;;7.63;2.77;;;2.20;99.90;;;;;;5003128;28;20030;-88
2022/01/10 04:58:11;;;;;;;7.05;2.65;;;2.20;99.90;;;;;;4991601;28;20037;-88
2022/01/10 05:00:53;;;;;;;5.87;2.50;;;2.20;99.90;;;;;;4988071;28;20026;-88
2022/01/10 05:03:37;;;;;;;7.63;2.55;;;2.20;99.90;;;;;;4991759;28;20034;-88
2022/01/10 05:06:19;;;;;;;6.93;2.80;;;2.10;99.90;;;;;;4987849;28;20034;-89
2022/01/10 05:08:47;;;;;;;5.20;2.20;;;2.10;99.90;;;;;;4994388;28;20026;-88
2022/01/10 05:11:20;;;;;;;5.70;2.13;;;2.10;99.90;;;;;;4987095;28;20039;-88
2022/01/10 05:13:46;;;;;;;4.25;1.73;;;2.10;99.90;;;;;;4990660;28;20029;-89
2022/01/10 05:16:22;;;;;;;5.90;2.13;;;2.10;99.90;;;;;;4983970;28;20022;-88
2022/01/10 05:18:50;;;;;;;6.73;2.90;;;2.10;99.90;;;;;;5001600;28;20040;-88
2022/01/10 05:21:20;;;;;;;11.37;3.23;;;2.10;99.90;;;;;;4982244;28;20042;-87
2022/01/10 05:23:49;;;;;;;7.40;3.10;;;2.20;99.90;;;;;;4989523;28;20053;-89
2022/01/10 05:26:22;;;;;;;9.90;3.30;;;2.20;99.90;;;;;;4986969;28;20033;-89
2022/01/10 05:29:04;;;;;;;7.43;2.77;;;2.10;99.90;;;;;;4996299;28;20093;-88
2022/01/10 05:31:39;;;;;;;7.78;2.20;;;2.20;99.90;;;;;;4992171;28;20062;-88
2022/01/10 05:34:19;;;;;;;7.67;2.80;;;2.30;99.90;;;;;;5000036;28;20042;-89
2022/01/10 05:36:57;;;;;;;6.00;2.60;;;2.10;99.90;;;;;;4990866;28;20045;-90
2022/01/10 05:39:36;;;;;;;9.53;3.10;;;2.10;99.90;;;;;;4988403;28;20089;-88
2022/01/10 05:42:18;;;;;;;6.60;2.73;;;2.10;99.90;;;;;;4991309;28;20042;-89
2022/01/10 05:46:11;;;;;;;;;;;;;;;;;;;;;
2022/01/10 06:01:34;;;;;;;7.23;3.33;;;2.20;99.90;;;;;;5009925;28;20066;-89
2022/01/10 06:15:30;;;;;;;;;;;;;;;;;;;;;
2022/01/10 06:42:57;;;;;;;10.17;3.77;;;2.20;99.90;;;;;;4961716;29;20043;-90
2022/01/10 06:45:23;;;;;;;10.97;4.30;;;2.20;99.90;;;;;;4954831;29;20027;-90
2022/01/10 06:47:50;;;;;;;10.23;4.17;;;2.20;99.90;;;;;;4954401;28;20027;-91
2022/01/10 06:50:46;;;;;;;18.57;4.07;;;2.20;99.90;;;;;;4969282;28;20027;-91
2022/01/10 07:23:01;;;;;;;13.88;4.85;;;2.30;99.90;;;;;;5606073;23;20043;-91
2022/01/10 10:41:03;;;;;;;15.90;5.70;;;3.10;99.90;;;;;;4997711;26;20042;-87
2022/01/10 10:44:19;;;;;;;13.90;5.70;;;3.20;99.90;;;;;;4986958;28;20031;-88
2022/01/10 12:38:24;;;;;;;10.53;4.83;;;4.30;99.90;;;;;;4980983;23;20426;-89
2022/01/10 12:40:53;;;;;;;12.37;5.23;;;4.40;99.90;;;;;;4970428;28;20123;-88
2022/01/10 12:43:22;;;;;;;12.03;4.90;;;4.50;99.90;;;;;;4979900;28;20027;-89
2022/01/10 12:45:49;;;;;;;9.97;4.13;;;4.60;99.90;;;;;;4991895;28;20026;-89
2022/01/10 12:48:14;;;;;;;10.20;4.30;;;4.50;99.90;;;;;;4985546;28;20062;-89
2022/01/10 12:50:44;;;;;;;9.67;4.40;;;4.50;99.90;;;;;;4975079;28;20062;-89
2022/01/10 12:53:10;;;;;;;9.80;4.23;;;4.60;99.90;;;;;;4995830;28;20462;-90
2022/01/10 12:55:36;;;;;;;8.37;3.43;;;4.50;99.90;;;;;;4982138;28;20080;-89
2022/01/10 12:58:06;;;;;;;10.60;4.10;;;4.50;99.90;;;;;;4980067;28;20403;-89
2022/01/10 13:00:32;;;;;;;9.57;4.03;;;4.50;99.90;;;;;;4969330;28;20033;-89
2022/01/10 13:03:00;;;;;;;11.33;4.07;;;4.50;99.90;;;;;;4992010;28;20026;-90
2022/01/10 13:05:26;;;;;;;10.53;4.67;;;4.50;99.90;;;;;;4977153;28;20038;-89
2022/01/10 13:07:53;;;;;;;19.10;4.27;;;4.70;99.90;;;;;;4990837;28;20065;-90
2022/01/10 13:10:29;;;;;;;12.00;4.37;;;4.60;99.90;;;;;;4976101;28;20025;-88
2022/01/10 13:12:57;;;;;;;10.03;4.47;;;4.60;99.90;;;;;;4981962;28;20052;-89
2022/01/10 13:15:23;;;;;;;12.63;3.73;;;4.60;99.90;;;;;;4988219;28;20149;-90
2022/01/10 13:18:02;;;;;;;9.93;4.20;;;4.60;99.90;;;;;;4990810;28;20133;-91
2022/01/10 13:20:39;;;;;;;12.30;4.67;;;4.60;99.90;;;;;;4977455;28;20030;-90
2022/01/10 13:23:11;;;;;;;11.83;4.17;;;4.60;99.90;;;;;;4981238;28;20022;-90
2022/01/10 13:25:47;;;;;;;10.67;4.17;;;4.50;99.90;;;;;;4981681;28;20064;-90
2022/01/10 13:28:21;;;;;;;11.13;4.23;;;4.60;99.90;;;;;;4988929;28;20025;-90
2022/01/10 13:30:53;;;;;;;8.17;3.80;;;4.60;99.90;;;;;;4982141;28;20026;-90
2022/01/10 13:33:20;;;;;;;16.43;4.20;;;4.60;99.90;;;;;;4984447;28;20074;-90
2022/01/10 13:35:57;;;;;;;9.13;4.17;;;4.60;99.90;;;;;;4983537;28;20435;-89
2022/01/10 13:38:27;;;;;;;10.37;4.50;;;4.50;99.90;;;;;;4975712;28;20089;-90
2022/01/10 13:40:54;;;;;;;13.80;5.00;;;4.50;99.90;;;;;;4981188;28;20026;-90
2022/01/10 13:43:31;;;;;;;10.27;3.77;;;4.50;99.90;;;;;;4972325;28;20062;-89
2022/01/10 13:46:01;;;;;;;9.17;4.10;;;4.40;99.90;;;;;;4978888;28;20110;-89
2022/01/10 13:48:38;;;;;;;11.93;5.47;;;4.30;99.90;;;;;;4972573;28;20041;-89
2022/01/10 13:51:11;;;;;;;13.83;5.40;;;4.40;99.90;;;;;;4980177;28;20019;-89
2022/01/10 13:53:46;;;;;;;12.67;5.30;;;4.40;99.90;;;;;;4977975;28;20098;-89
2022/01/10 13:56:11;;;;;;;11.73;5.10;;;4.50;99.90;;;;;;4976998;28;20050;-87
2022/01/10 13:58:47;;;;;;;14.53;5.33;;;4.50;99.90;;;;;;4994602;28;21509;-88
2022/01/10 14:01:15;;;;;;;16.40;5.40;;;4.40;99.90;;;;;;4977380;28;20033;-88
2022/01/10 14:03:41;;;;;;;13.00;4.83;;;4.40;99.90;;;;;;4975118;28;20023;-88
2022/01/10 14:06:08;;;;;;;13.40;6.03;;;4.30;99.90;;;;;;4999391;28;20023;-88
2022/01/10 14:09:04;;;;;;;17.07;6.73;;;4.30;99.90;;;;;;4977268;28;20113;-88
2022/01/10 14:11:31;;;;;;;11.07;5.37;;;4.30;99.90;;;;;;4972533;28;20030;-88
2022/01/10 14:14:02;;;;;;;16.73;5.10;;;4.30;99.90;;;;;;4975739;28;20032;-88
2022/01/10 14:16:39;;;;;;;14.63;5.90;;;4.20;99.90;;;;;;4980465;28;20058;-87
2022/01/10 14:19:09;;;;;;;18.57;6.00;;;4.30;99.90;;;;;;4986609;28;20022;-88
2022/01/10 14:21:36;;;;;;;17.77;6.53;;;4.40;99.90;;;;;;4978458;28;20113;-88
2022/01/10 14:24:02;;;;;;;13.63;5.90;;;4.20;99.90;;;;;;4988433;28;20038;-88
2022/01/10 14:26:28;;;;;;;17.73;7.03;;;4.30;99.90;;;;;;4996922;28;20057;-87
2022/01/10 14:28:53;;;;;;;16.60;6.20;;;4.20;99.90;;;;;;4977018;28;20059;-87
2022/01/10 14:31:19;;;;;;;15.00;6.93;;;4.20;99.90;;;;;;4977503;28;20082;-88
2022/01/10 14:33:46;;;;;;;11.70;6.07;;;4.20;99.90;;;;;;4973713;28;20026;-89
2022/01/10 14:36:12;;;;;;;13.77;6.23;;;4.10;99.90;;;;;;4966983;28;20113;-88
2022/01/10 14:38:39;;;;;;;13.20;4.97;;;4.20;99.90;;;;;;4997776;28;20130;-89
2022/01/10 14:41:05;;;;;;;15.03;5.50;;;4.20;99.90;;;;;;4991464;28;20120;-88
2022/01/10 14:43:31;;;;;;;14.20;5.93;;;4.20;99.90;;;;;;4978528;28;20114;-88
2022/01/10 14:45:58;;;;;;;14.77;5.77;;;4.10;99.90;;;;;;4991708;28;20058;-89
2022/01/10 14:48:25;;;;;;;12.27;5.60;;;4.10;99.90;;;;;;4981431;28;20026;-88
2022/01/10 14:50:53;;;;;;;15.27;6.03;;;4.10;99.90;;;;;;4983731;28;20483;-88
2022/01/10 14:53:21;;;;;;;12.77;5.67;;;4.10;99.90;;;;;;4982425;28;20019;-89
2022/01/10 14:55:54;;;;;;;12.07;5.37;;;4.10;99.90;;;;;;4976871;28;20025;-88
2022/01/10 14:58:20;;;;;;;12.20;5.73;;;4.10;99.90;;;;;;4983711;28;20098;-88
2022/01/10 15:00:51;;;;;;;12.23;5.50;;;4.00;99.90;;;;;;4987803;28;20022;-88
2022/01/10 15:03:19;;;;;;;10.77;5.00;;;4.00;99.90;;;;;;4970965;28;20034;-88
2022/01/10 15:05:48;;;;;;;14.03;5.60;;;4.00;99.90;;;;;;4972661;28;20038;-88
2022/01/10 15:08:16;;;;;;;12.57;4.63;;;4.00;99.90;;;;;;4985764;28;20026;-89
2022/01/10 15:10:43;;;;;;;14.77;5.43;;;3.90;99.90;;;;;;4977301;28;20483;-89
2022/01/10 15:13:12;;;;;;;15.50;5.13;;;4.00;99.90;;;;;;4977481;28;20053;-89
2022/01/10 15:15:39;;;;;;;16.00;5.13;;;3.90;99.90;;;;;;4967263;28;20023;-89
2022/01/10 15:18:05;;;;;;;14.43;5.17;;;3.90;99.90;;;;;;4971057;28;20110;-90
2022/01/10 15:20:30;;;;;;;13.93;5.17;;;3.80;99.90;;;;;;4971013;28;20474;-89
2022/01/10 15:22:59;;;;;;;12.73;5.77;;;3.90;99.90;;;;;;4970383;28;20036;-89
2022/01/10 15:25:25;;;;;;;13.83;5.77;;;3.80;99.90;;;;;;4972733;28;20023;-88
2022/01/10 15:27:54;;;;;;;16.73;5.70;;;3.90;99.90;;;;;;4983755;28;20043;-89
2022/01/10 15:30:25;;;;;;;14.83;5.47;;;3.80;99.90;;;;;;4968012;28;20022;-88
2022/01/10 15:32:51;;;;;;;17.47;6.17;;;3.80;99.90;;;;;;4971135;28;20027;-88
2022/01/10 15:35:17;;;;;;;18.60;5.87;;;3.70;99.90;;;;;;4974553;28;20421;-87
2022/01/10 15:37:43;;;;;;;11.40;4.93;;;3.70;99.90;;;;;;4970262;28;20030;-88
2022/01/10 15:40:09;;;;;;;12.83;4.97;;;3.70;99.90;;;;;;4989982;28;20019;-88
2022/01/10 15:42:37;;;;;;;13.53;5.03;;;3.70;99.90;;;;;;4968216;28;20431;-88
2022/01/10 15:45:05;;;;;;;15.50;5.47;;;3.70;99.90;;;;;;4972865;28;20501;-89
2022/01/10 15:47:31;;;;;;;16.50;5.10;;;3.60;99.90;;;;;;4985802;28;20039;-88
2022/01/10 15:49:57;;;;;;;16.10;5.70;;;3.60;99.90;;;;;;4969326;28;20122;-87
2022/01/10 15:52:25;;;;;;;12.27;5.60;;;3.50;99.90;;;;;;4987288;28;20042;-88
2022/01/10 15:54:51;;;;;;;11.87;5.33;;;3.50;99.90;;;;;;4973081;28;20387;-87
2022/01/10 15:57:17;;;;;;;12.17;5.43;;;3.50;99.90;;;;;;4984513;28;20387;-88
2022/01/10 15:59:43;;;;;;;15.23;5.53;;;3.50;99.90;;;;;;4973877;28;20026;-88
2022/01/10 16:02:12;;;;;;;12.90;5.57;;;3.40;99.90;;;;;;4969900;28;20049;-88
2022/01/10 16:04:41;;;;;;;11.70;5.17;;;3.40;99.90;;;;;;4973421;28;20030;-88
2022/01/10 16:07:10;;;;;;;10.57;4.67;;;3.40;99.90;;;;;;4973551;28;20581;-87
2022/01/10 16:09:36;;;;;;;14.50;5.03;;;3.30;99.90;;;;;;4985333;28;20031;-88
2022/01/10 16:12:01;;;;;;;18.10;5.50;;;3.30;99.90;;;;;;4986347;28;20038;-88
2022/01/10 16:14:28;;;;;;;13.00;5.47;;;3.30;99.90;;;;;;4971548;28;20034;-88
2022/01/10 16:16:59;;;;;;;10.93;4.30;;;3.20;99.90;;;;;;4972930;28;20030;-87
2022/01/10 16:19:25;;;;;;;13.60;5.47;;;3.30;99.90;;;;;;4969152;28;20089;-88
2022/01/10 16:21:51;;;;;;;10.17;4.90;;;3.20;99.90;;;;;;4979833;28;20450;-88
2022/01/10 16:24:17;;;;;;;14.03;4.67;;;3.20;99.90;;;;;;4967420;28;20085;-88
2022/01/10 16:26:44;;;;;;;13.03;5.10;;;3.10;99.90;;;;;;4973730;28;20401;-88
2022/01/10 16:29:11;;;;;;;16.13;5.43;;;3.10;99.90;;;;;;4977648;28;20113;-88
2022/01/10 16:31:41;;;;;;;15.23;5.10;;;3.10;99.90;;;;;;4988557;28;20031;-88
2022/01/10 16:34:07;;;;;;;12.20;5.10;;;3.10;99.90;;;;;;4972921;28;20030;-89
2022/01/10 16:36:33;;;;;;;12.47;5.27;;;3.10;99.90;;;;;;4972809;28;20088;-87
2022/01/10 16:38:59;;;;;;;15.10;6.37;;;3.10;99.90;;;;;;4971808;28;20030;-88
2022/01/10 16:41:24;;;;;;;16.83;5.30;;;3.10;99.90;;;;;;4976064;28;20716;-88
2022/01/10 16:43:50;;;;;;;17.17;5.30;;;3.10;99.90;;;;;;4973645;28;20090;-88
2022/01/10 16:46:17;;;;;;;13.77;5.77;;;3.10;99.90;;;;;;4987430;28;20022;-89
2022/01/10 16:48:44;;;;;;;11.83;4.87;;;3.10;99.90;;;;;;4988118;28;20507;-88
2022/01/10 16:51:11;;;;;;;14.67;5.87;;;3.00;99.90;;;;;;4971962;28;20039;-89
2022/01/10 16:53:38;;;;;;;16.30;6.17;;;3.00;99.90;;;;;;4987525;28;20023;-89
2022/01/10 16:56:05;;;;;;;17.23;5.77;;;3.00;99.90;;;;;;4976006;28;20132;-88
2022/01/10 16:58:31;;;;;;;17.27;5.80;;;2.90;99.90;;;;;;4971761;28;20062;-88
2022/01/10 17:00:59;;;;;;;18.77;5.70;;;3.00;99.90;;;;;;4987298;28;20054;-89
2022/01/10 17:03:26;;;;;;;17.27;5.93;;;2.90;99.90;;;;;;4989157;28;20034;-90
2022/01/10 17:05:52;;;;;;;16.63;6.33;;;2.80;99.90;;;;;;4986860;28;20044;-90
2022/01/10 17:08:20;;;;;;;21.50;6.50;;;2.80;99.90;;;;;;4982261;28;20035;-89
2022/01/10 17:10:48;;;;;;;16.50;6.57;;;2.80;99.90;;;;;;4983780;28;20469;-88
2022/01/10 17:13:15;;;;;;;18.70;6.50;;;2.80;99.90;;;;;;4985886;28;20052;-89
2022/01/10 17:15:41;;;;;;;14.53;6.37;;;2.80;99.90;;;;;;4986223;28;20462;-89
2022/01/10 17:18:07;;;;;;;21.20;6.30;;;2.80;99.90;;;;;;4988944;28;20028;-89
2022/01/10 17:20:45;;;;;;;15.80;7.77;;;2.70;99.90;;;;;;4974123;28;20026;-89
2022/01/10 17:23:11;;;;;;;13.30;6.80;;;2.70;99.90;;;;;;4975171;28;20099;-89
2022/01/10 17:25:37;;;;;;;19.33;7.43;;;2.80;99.90;;;;;;4985916;28;20483;-88
2022/01/10 17:28:04;;;;;;;17.67;6.73;;;2.80;99.90;;;;;;4987707;28;20035;-88
2022/01/10 17:30:32;;;;;;;18.03;7.37;;;2.70;99.90;;;;;;4972866;28;20030;-90
2022/01/10 17:32:59;;;;;;;13.53;6.50;;;2.70;99.90;;;;;;4974390;28;20030;-89
2022/01/10 17:35:31;;;;;;;14.23;6.57;;;2.50;99.90;;;;;;4974884;28;20034;-89
2022/01/10 17:37:56;;;;;;;17.65;6.95;;;2.50;99.90;;;;;;4980039;28;20407;-88
2022/01/10 17:40:22;;;;;;;15.83;6.80;;;2.50;99.90;;;;;;4992268;28;20034;-88
2022/01/10 17:42:49;;;;;;;14.63;6.97;;;2.40;99.90;;;;;;5001555;28;20038;-88
2022/01/10 17:45:16;;;;;;;16.03;7.20;;;2.50;99.90;;;;;;4998097;28;20046;-88
2022/01/10 17:47:44;;;;;;;17.80;7.83;;;2.40;99.90;;;;;;4969945;28;20031;-88
2022/01/10 17:50:11;;;;;;;18.80;7.10;;;2.40;99.90;;;;;;4981780;28;20023;-89
2022/01/10 17:52:42;;;;;;;19.53;7.60;;;2.40;99.90;;;;;;4973265;28;20030;-88
2022/01/10 17:55:13;;;;;;;11.70;4.73;;;2.40;99.90;;;;;;4994199;28;20018;-88
2022/01/10 17:57:40;;;;;;;16.90;7.10;;;2.40;99.90;;;;;;4978341;28;20027;-87
2022/01/10 18:00:08;;;;;;;19.13;7.77;;;2.30;99.90;;;;;;4976847;28;20027;-89
2022/01/10 18:02:37;;;;;;;18.30;7.37;;;2.30;99.90;;;;;;4990364;28;20103;-88
2022/01/10 18:05:07;;;;;;;16.70;7.47;;;2.30;99.90;;;;;;4979989;28;20033;-87
2022/01/10 18:07:32;;;;;;;21.07;8.23;;;2.30;99.90;;;;;;4974537;28;20036;-86
2022/01/10 18:09:59;;;;;;;17.90;7.60;;;2.30;99.90;;;;;;4990380;28;20482;-87
2022/01/10 18:12:28;;;;;;;24.33;7.50;;;2.30;99.90;;;;;;4973677;28;20030;-87
2022/01/10 18:14:53;;;;;;;18.73;7.43;;;2.30;99.90;;;;;;4973725;28;20023;-90
2022/01/10 18:17:20;;;;;;;19.97;8.10;;;2.30;99.90;;;;;;4972249;28;20173;-87
2022/01/10 18:19:47;;;;;;;20.03;7.23;;;2.30;99.90;;;;;;4989088;28;20402;-89
2022/01/10 18:22:13;;;;;;;19.13;7.37;;;2.40;99.90;;;;;;4978688;28;20022;-89
2022/01/10 18:24:40;;;;;;;17.47;8.10;;;2.30;99.90;;;;;;4980359;28;20036;-89
2022/01/10 18:27:06;;;;;;;17.57;7.60;;;2.30;99.90;;;;;;4984314;28;20037;-87
2022/01/10 18:29:31;;;;;;;21.87;7.67;;;2.20;99.90;;;;;;4985983;28;20089;-86
2022/01/10 18:31:59;;;;;;;19.90;7.47;;;2.20;99.90;;;;;;4975932;28;20105;-87
2022/01/10 18:34:26;;;;;;;16.47;7.23;;;2.20;99.90;;;;;;4989551;28;20117;-85
2022/01/10 18:36:52;;;;;;;15.77;7.17;;;2.20;99.90;;;;;;4988436;28;20045;-87
2022/01/10 18:39:19;;;;;;;20.97;8.03;;;2.20;99.90;;;;;;4982782;28;20030;-89
2022/01/10 18:41:47;;;;;;;18.30;7.27;;;2.10;99.90;;;;;;4973213;28;20557;-89
2022/01/10 18:44:15;;;;;;;22.47;7.87;;;2.20;99.90;;;;;;4979064;28;20031;-90
2022/01/10 18:46:42;;;;;;;27.13;8.93;;;2.20;99.90;;;;;;4991824;28;20043;-88
2022/01/10 18:49:08;;;;;;;21.07;8.10;;;2.10;99.90;;;;;;4988467;28;20022;-89
2022/01/10 18:51:35;;;;;;;18.83;7.63;;;2.10;99.90;;;;;;4977697;28;20580;-89
2022/01/10 18:57:44;;;;;;;19.10;6.67;;;2.00;99.90;;;;;;5186969;23;20207;-89
2022/01/10 19:21:35;;;;;;;17.60;7.80;;;1.90;99.90;;;;;;4975733;28;20042;-91
2022/01/10 19:28:35;;;;;;;;;;;;;;;;;;;;;
2022/01/10 19:31:01;;;;;;;14.60;6.53;;;1.80;99.90;;;;;;4925167;28;20120;-90
2022/01/10 19:55:09;;;;;;;;;;;1.60;99.90;;;;;;4957528;29;20051;-87
2022/01/10 19:58:04;;;;;;;19.90;7.33;;;1.60;99.90;;;;;;4954556;29;19961;-87
2022/01/10 20:00:56;;;;;;;;;;;;;;;;;;;;;
2022/01/10 20:03:26;;;;;;;16.08;8.00;;;1.60;99.90;;;;;;4930700;29;20435;-89
2022/01/10 20:05:57;;;;;;;20.73;7.07;;;1.60;99.90;;;;;;4929823;29;20082;-86
2022/01/10 20:08:26;;;;;;;21.63;7.10;;;1.50;99.90;;;;;;4931548;29;20118;-88
2022/01/10 20:11:01;;;;;;;20.23;7.93;;;1.50;99.90;;;;;;4917306;29;20110;-87
2022/01/10 20:13:35;;;;;;;21.43;7.83;;;1.50;99.90;;;;;;4913933;29;20024;-86
2022/01/10 20:16:01;;;;;;;20.23;8.27;;;1.60;99.90;;;;;;4928286;29;20026;-86
2022/01/10 20:18:27;;;;;;;18.93;7.87;;;1.60;99.90;;;;;;4933541;29;20027;-87
2022/01/10 20:21:02;;;;;;;18.27;8.07;;;1.60;99.90;;;;;;4926022;29;20028;-88
2022/01/10 20:23:30;;;;;;;18.20;8.30;;;1.60;99.90;;;;;;4941267;29;20039;-90
2022/01/10 20:25:59;;;;;;;17.90;8.33;;;1.50;99.90;;;;;;4926681;29;20036;-87
2022/01/10 20:29:11;;;;;;;;;;;;;;;;;;;;;
2022/01/10 20:36:12;;;;;;;28.77;7.70;;;1.60;99.90;;;;;;4786286;29;20111;-89
2022/01/10 21:15:19;;;;;;;25.20;8.47;;;1.90;99.90;;;;;;3105875;26;20061;-89
2022/01/10 21:17:57;;;;;;;20.33;7.68;;;2.00;99.90;;;;;;4959262;28;20058;-87
2022/01/10 21:21:19;;;;;;;;;;;;;;;;;;;;;
2022/01/10 21:23:57;;;;;;;24.42;8.88;;;2.10;99.90;;;;;;4953807;28;20493;-90
2022/01/10 21:26:58;;;;;;;20.57;8.20;;;2.10;99.90;;;;;;4917689;29;20053;-89
2022/01/10 21:29:55;;;;;;;22.00;8.30;;;2.10;99.90;;;;;;4951435;29;20055;-89
2022/01/10 21:33:15;;;;;;;16.93;7.80;;;2.20;99.90;;;;;;4922639;29;20049;-89
2022/01/10 21:35:52;;;;;;;17.83;6.67;;;2.20;99.90;;;;;;4918430;29;20555;-89
2022/01/10 21:38:32;;;;;;;18.50;8.00;;;2.10;99.90;;;;;;4942849;29;20499;-87
2022/01/10 21:41:00;;;;;;;16.17;7.57;;;2.20;99.90;;;;;;4939648;29;20039;-89
2022/01/10 21:44:00;;;;;;;19.90;8.23;;;2.10;99.90;;;;;;4955085;29;20134;-89